sensor_id;sensor_type;location;lat;lon;timestamp;temperature;humidity
60701;DHT22;46541;49.894;10.886;2022-10-18T00:00:04;14.80;99.90
60701;DHT22;46541;49.894;10.886;2022-10-18T00:02:31;14.70;99.90
60701;DHT22;46541;49.894;10.886;2022-10-18T00:04:58;14.70;99.90
60701;DHT22;46541;49.894;10.886;2022-10-18T00:07:25;14.60;99.90
60701;DHT22;46541;49.894;10.886;2022-10-18T00:09:51;14.70;99.90
60701;DHT22;46541;49.894;10.886;2022-10-18T00:12:18;14.60;99.90
60701;DHT22;46541;49.894;10.886;2022-10-18T00:14:48;14.60;99.90
60701;DHT22;46541;49.894;10.886;2022-10-18T00:17:15;14.60;99.90
60701;DHT22;46541;49.894;10.886;2022-10-18T00:19:42;14.60;99.90
60701;DHT22;46541;49.894;10.886;2022-10-18T00:22:09;14.50;99.90
60701;DHT22;46541;49.894;10.886;2022-10-18T00:24:36;14.50;99.90
60701;DHT22;46541;49.894;10.886;2022-10-18T00:27:03;14.40;99.90
60701;DHT22;46541;49.894;10.886;2022-10-18T00:29:29;14.50;99.90
60701;DHT22;46541;49.894;10.886;2022-10-18T00:31:56;14.50;99.90
60701;DHT22;46541;49.894;10.886;2022-10-18T00:34:23;14.50;99.90
60701;DHT22;46541;49.894;10.886;2022-10-18T00:36:49;14.50;99.90
60701;DHT22;46541;49.894;10.886;2022-10-18T00:39:18;14.50;99.90
60701;DHT22;46541;49.894;10.886;2022-10-18T00:41:46;14.50;99.90
60701;DHT22;46541;49.894;10.886;2022-10-18T00:46:44;14.40;99.90
60701;DHT22;46541;49.894;10.886;2022-10-18T00:49:21;14.40;99.90
60701;DHT22;46541;49.894;10.886;2022-10-18T00:51:55;14.30;99.90
60701;DHT22;46541;49.894;10.886;2022-10-18T00:54:23;14.30;99.90
60701;DHT22;46541;49.894;10.886;2022-10-18T00:56:50;14.30;99.90
60701;DHT22;46541;49.894;10.886;2022-10-18T00:59:18;14.30;99.90
60701;DHT22;46541;49.894;10.886;2022-10-18T01:01:45;14.30;99.90
60701;DHT22;46541;49.894;10.886;2022-10-18T01:04:14;14.20;99.90
60701;DHT22;46541;49.894;10.886;2022-10-18T01:16:02;14.10;99.90
60701;DHT22;46541;49.894;10.886;2022-10-18T01:18:39;14.10;99.90
60701;DHT22;46541;49.894;10.886;2022-10-18T01:27:04;14.20;99.90
60701;DHT22;46541;49.894;10.886;2022-10-18T01:32:30;14.20;99.90
60701;DHT22;46541;49.894;10.886;2022-10-18T01:35:02;14.20;99.90
60701;DHT22;46541;49.894;10.886;2022-10-18T01:37:31;14.10;99.90
60701;DHT22;46541;49.894;10.886;2022-10-18T01:39:59;14.20;99.90
60701;DHT22;46541;49.894;10.886;2022-10-18T01:42:29;14.20;99.90
60701;DHT22;46541;49.894;10.886;2022-10-18T01:44:57;14.20;99.90
60701;DHT22;46541;49.894;10.886;2022-10-18T01:47:24;14.20;99.90
60701;DHT22;46541;49.894;10.886;2022-10-18T01:50:04;14.10;99.90
60701;DHT22;46541;49.894;10.886;2022-10-18T01:52:31;14.10;99.90
60701;DHT22;46541;49.894;10.886;2022-10-18T01:54:59;14.00;99.90
60701;DHT22;46541;49.894;10.886;2022-10-18T01:58:20;14.00;99.90
60701;DHT22;46541;49.894;10.886;2022-10-18T02:00:34;14.00;99.90
60701;DHT22;46541;49.894;10.886;2022-10-18T02:03:21;14.00;99.90
60701;DHT22;46541;49.894;10.886;2022-10-18T02:08:53;13.90;99.90
60701;DHT22;46541;49.894;10.886;2022-10-18T02:11:22;13.90;99.90
60701;DHT22;46541;49.894;10.886;2022-10-18T02:13:56;13.90;99.90
60701;DHT22;46541;49.894;10.886;2022-10-18T02:16:29;13.90;99.90
60701;DHT22;46541;49.894;10.886;2022-10-18T02:19:01;13.80;99.90
60701;DHT22;46541;49.894;10.886;2022-10-18T02:21:31;13.80;99.90
60701;DHT22;46541;49.894;10.886;2022-10-18T02:24:00;13.80;99.90
60701;DHT22;46541;49.894;10.886;2022-10-18T02:26:28;13.80;99.90
60701;DHT22;46541;49.894;10.886;2022-10-18T02:28:55;13.80;99.90
60701;DHT22;46541;49.894;10.886;2022-10-18T02:31:29;13.80;99.90
60701;DHT22;46541;49.894;10.886;2022-10-18T02:39:17;13.80;99.90
60701;DHT22;46541;49.894;10.886;2022-10-18T02:41:44;13.80;99.90
60701;DHT22;46541;49.894;10.886;2022-10-18T02:44:12;13.80;99.90
60701;DHT22;46541;49.894;10.886;2022-10-18T02:46:39;13.80;99.90
60701;DHT22;46541;49.894;10.886;2022-10-18T02:49:06;13.80;99.90
60701;DHT22;46541;49.894;10.886;2022-10-18T02:51:33;13.80;99.90
60701;DHT22;46541;49.894;10.886;2022-10-18T02:54:00;13.80;99.90
60701;DHT22;46541;49.894;10.886;2022-10-18T02:56:27;13.80;99.90
60701;DHT22;46541;49.894;10.886;2022-10-18T02:58:53;13.70;99.90
60701;DHT22;46541;49.894;10.886;2022-10-18T03:01:20;13.70;99.90
60701;DHT22;46541;49.894;10.886;2022-10-18T03:03:47;13.70;99.90
60701;DHT22;46541;49.894;10.886;2022-10-18T03:06:14;13.70;99.90
60701;DHT22;46541;49.894;10.886;2022-10-18T03:08:41;13.70;99.90
60701;DHT22;46541;49.894;10.886;2022-10-18T03:11:07;13.70;99.90
60701;DHT22;46541;49.894;10.886;2022-10-18T03:13:34;13.70;99.90
60701;DHT22;46541;49.894;10.886;2022-10-18T03:16:01;13.60;99.90
60701;DHT22;46541;49.894;10.886;2022-10-18T03:18:28;13.60;99.90
60701;DHT22;46541;49.894;10.886;2022-10-18T03:20:54;13.60;99.90
60701;DHT22;46541;49.894;10.886;2022-10-18T03:23:21;13.70;99.90
60701;DHT22;46541;49.894;10.886;2022-10-18T03:25:48;13.70;99.90
60701;DHT22;46541;49.894;10.886;2022-10-18T03:28:15;13.70;99.90
60701;DHT22;46541;49.894;10.886;2022-10-18T03:30:41;13.70;99.90
60701;DHT22;46541;49.894;10.886;2022-10-18T03:33:08;13.70;99.90
60701;DHT22;46541;49.894;10.886;2022-10-18T03:35:35;13.70;99.90
60701;DHT22;46541;49.894;10.886;2022-10-18T03:38:02;13.70;99.90
60701;DHT22;46541;49.894;10.886;2022-10-18T03:40:28;13.80;99.90
60701;DHT22;46541;49.894;10.886;2022-10-18T03:42:56;13.80;99.90
60701;DHT22;46541;49.894;10.886;2022-10-18T03:45:23;13.70;99.90
60701;DHT22;46541;49.894;10.886;2022-10-18T03:47:56;13.80;99.90
60701;DHT22;46541;49.894;10.886;2022-10-18T03:50:23;13.80;99.90
60701;DHT22;46541;49.894;10.886;2022-10-18T03:52:50;13.90;99.90
60701;DHT22;46541;49.894;10.886;2022-10-18T03:55:16;13.90;99.90
60701;DHT22;46541;49.894;10.886;2022-10-18T03:57:43;13.90;99.90
60701;DHT22;46541;49.894;10.886;2022-10-18T04:00:10;13.90;99.90
60701;DHT22;46541;49.894;10.886;2022-10-18T04:02:38;13.90;99.90
60701;DHT22;46541;49.894;10.886;2022-10-18T04:05:05;13.90;99.90
60701;DHT22;46541;49.894;10.886;2022-10-18T04:07:34;13.90;99.90
60701;DHT22;46541;49.894;10.886;2022-10-18T04:10:06;14.00;99.90
60701;DHT22;46541;49.894;10.886;2022-10-18T04:12:33;13.90;99.90
60701;DHT22;46541;49.894;10.886;2022-10-18T04:15:00;14.00;99.90
60701;DHT22;46541;49.894;10.886;2022-10-18T04:17:27;14.00;99.90
60701;DHT22;46541;49.894;10.886;2022-10-18T04:19:53;13.90;99.90
60701;DHT22;46541;49.894;10.886;2022-10-18T04:22:20;13.90;99.90
60701;DHT22;46541;49.894;10.886;2022-10-18T04:24:47;13.90;99.90
60701;DHT22;46541;49.894;10.886;2022-10-18T04:27:14;13.90;99.90
60701;DHT22;46541;49.894;10.886;2022-10-18T04:29:40;13.80;99.90
60701;DHT22;46541;49.894;10.886;2022-10-18T04:32:07;13.90;99.90
60701;DHT22;46541;49.894;10.886;2022-10-18T04:34:34;13.90;99.90
60701;DHT22;46541;49.894;10.886;2022-10-18T04:37:00;13.90;99.90
60701;DHT22;46541;49.894;10.886;2022-10-18T04:39:27;13.90;99.90
60701;DHT22;46541;49.894;10.886;2022-10-18T04:41:54;13.90;99.90
60701;DHT22;46541;49.894;10.886;2022-10-18T04:44:21;13.90;99.90
60701;DHT22;46541;49.894;10.886;2022-10-18T04:46:48;13.90;99.90
60701;DHT22;46541;49.894;10.886;2022-10-18T04:49:14;13.90;99.90
60701;DHT22;46541;49.894;10.886;2022-10-18T04:51:41;13.80;99.90
60701;DHT22;46541;49.894;10.886;2022-10-18T04:54:08;13.80;99.90
60701;DHT22;46541;49.894;10.886;2022-10-18T04:56:35;13.80;99.90
60701;DHT22;46541;49.894;10.886;2022-10-18T04:59:01;13.80;99.90
60701;DHT22;46541;49.894;10.886;2022-10-18T05:01:28;13.80;99.90
60701;DHT22;46541;49.894;10.886;2022-10-18T05:03:55;13.80;99.90
60701;DHT22;46541;49.894;10.886;2022-10-18T05:06:22;13.80;99.90
60701;DHT22;46541;49.894;10.886;2022-10-18T05:08:49;13.80;99.90
60701;DHT22;46541;49.894;10.886;2022-10-18T05:11:15;13.80;99.90
60701;DHT22;46541;49.894;10.886;2022-10-18T05:13:42;13.90;99.90
60701;DHT22;46541;49.894;10.886;2022-10-18T05:16:14;13.90;99.90
60701;DHT22;46541;49.894;10.886;2022-10-18T05:18:41;13.90;99.90
60701;DHT22;46541;49.894;10.886;2022-10-18T05:21:08;13.90;99.90
60701;DHT22;46541;49.894;10.886;2022-10-18T05:23:35;14.00;99.90
60701;DHT22;46541;49.894;10.886;2022-10-18T05:26:03;14.00;99.90
60701;DHT22;46541;49.894;10.886;2022-10-18T05:28:30;14.00;99.90
60701;DHT22;46541;49.894;10.886;2022-10-18T05:31:07;14.10;99.90
60701;DHT22;46541;49.894;10.886;2022-10-18T05:33:34;14.00;99.90
60701;DHT22;46541;49.894;10.886;2022-10-18T05:36:00;14.10;99.90
60701;DHT22;46541;49.894;10.886;2022-10-18T05:38:27;14.10;99.90
60701;DHT22;46541;49.894;10.886;2022-10-18T05:40:57;14.10;99.90
60701;DHT22;46541;49.894;10.886;2022-10-18T05:43:27;14.10;99.90
60701;DHT22;46541;49.894;10.886;2022-10-18T05:45:54;14.10;99.90
60701;DHT22;46541;49.894;10.886;2022-10-18T05:48:21;14.00;99.90
60701;DHT22;46541;49.894;10.886;2022-10-18T05:50:48;14.00;99.90
60701;DHT22;46541;49.894;10.886;2022-10-18T05:53:15;14.00;99.90
60701;DHT22;46541;49.894;10.886;2022-10-18T05:56:02;14.10;99.90
60701;DHT22;46541;49.894;10.886;2022-10-18T05:58:29;14.10;99.90
60701;DHT22;46541;49.894;10.886;2022-10-18T06:01:03;14.10;99.90
60701;DHT22;46541;49.894;10.886;2022-10-18T06:03:31;14.10;99.90
60701;DHT22;46541;49.894;10.886;2022-10-18T06:06:08;14.10;99.90
60701;DHT22;46541;49.894;10.886;2022-10-18T06:08:37;14.20;99.90
60701;DHT22;46541;49.894;10.886;2022-10-18T06:11:12;14.20;99.90
60701;DHT22;46541;49.894;10.886;2022-10-18T06:13:46;14.20;99.90
60701;DHT22;46541;49.894;10.886;2022-10-18T06:16:15;14.30;99.90
60701;DHT22;46541;49.894;10.886;2022-10-18T06:18:42;14.40;99.90
60701;DHT22;46541;49.894;10.886;2022-10-18T06:21:09;14.40;99.90
60701;DHT22;46541;49.894;10.886;2022-10-18T06:23:35;14.40;99.90
60701;DHT22;46541;49.894;10.886;2022-10-18T06:26:05;14.50;99.90
60701;DHT22;46541;49.894;10.886;2022-10-18T06:28:34;14.50;99.90
60701;DHT22;46541;49.894;10.886;2022-10-18T06:31:02;14.50;99.90
60701;DHT22;46541;49.894;10.886;2022-10-18T06:33:33;14.50;99.90
60701;DHT22;46541;49.894;10.886;2022-10-18T06:36:04;14.50;99.90
60701;DHT22;46541;49.894;10.886;2022-10-18T06:38:32;14.60;99.90
60701;DHT22;46541;49.894;10.886;2022-10-18T06:40:59;14.60;99.90
60701;DHT22;46541;49.894;10.886;2022-10-18T06:43:26;14.60;99.90
60701;DHT22;46541;49.894;10.886;2022-10-18T06:45:54;14.60;99.90
60701;DHT22;46541;49.894;10.886;2022-10-18T06:48:21;14.70;99.90
60701;DHT22;46541;49.894;10.886;2022-10-18T06:50:59;14.80;99.90
60701;DHT22;46541;49.894;10.886;2022-10-18T06:53:30;14.80;99.90
60701;DHT22;46541;49.894;10.886;2022-10-18T06:56:00;14.90;99.90
60701;DHT22;46541;49.894;10.886;2022-10-18T06:58:28;14.90;99.90
60701;DHT22;46541;49.894;10.886;2022-10-18T07:00:55;14.90;99.90
60701;DHT22;46541;49.894;10.886;2022-10-18T07:03:22;14.90;99.90
60701;DHT22;46541;49.894;10.886;2022-10-18T07:05:49;15.00;99.90
60701;DHT22;46541;49.894;10.886;2022-10-18T07:08:17;15.00;99.90
60701;DHT22;46541;49.894;10.886;2022-10-18T07:10:53;15.00;99.90
60701;DHT22;46541;49.894;10.886;2022-10-18T07:13:21;15.00;99.90
60701;DHT22;46541;49.894;10.886;2022-10-18T07:16:11;15.00;99.90
60701;DHT22;46541;49.894;10.886;2022-10-18T07:18:46;15.10;99.90
60701;DHT22;46541;49.894;10.886;2022-10-18T07:21:17;15.10;99.90
60701;DHT22;46541;49.894;10.886;2022-10-18T07:23:44;15.20;99.90
60701;DHT22;46541;49.894;10.886;2022-10-18T07:28:47;15.20;99.90
60701;DHT22;46541;49.894;10.886;2022-10-18T07:31:16;15.20;99.90
60701;DHT22;46541;49.894;10.886;2022-10-18T07:33:43;15.20;99.90
60701;DHT22;46541;49.894;10.886;2022-10-18T07:36:11;15.30;99.90
60701;DHT22;46541;49.894;10.886;2022-10-18T07:38:38;15.30;99.90
60701;DHT22;46541;49.894;10.886;2022-10-18T07:41:05;15.40;99.90
60701;DHT22;46541;49.894;10.886;2022-10-18T07:43:33;15.30;99.90
60701;DHT22;46541;49.894;10.886;2022-10-18T07:46:02;15.40;99.90
60701;DHT22;46541;49.894;10.886;2022-10-18T07:48:29;15.50;99.90
60701;DHT22;46541;49.894;10.886;2022-10-18T07:51:00;15.60;99.90
60701;DHT22;46541;49.894;10.886;2022-10-18T07:53:28;15.70;99.90
60701;DHT22;46541;49.894;10.886;2022-10-18T07:56:02;15.80;99.90
60701;DHT22;46541;49.894;10.886;2022-10-18T07:58:34;15.90;99.90
60701;DHT22;46541;49.894;10.886;2022-10-18T08:01:05;16.10;99.90
60701;DHT22;46541;49.894;10.886;2022-10-18T08:03:33;16.10;99.90
60701;DHT22;46541;49.894;10.886;2022-10-18T08:06:01;16.20;99.90
60701;DHT22;46541;49.894;10.886;2022-10-18T08:08:28;16.20;99.90
60701;DHT22;46541;49.894;10.886;2022-10-18T08:11:00;16.20;99.90
60701;DHT22;46541;49.894;10.886;2022-10-18T08:13:27;16.10;99.90
60701;DHT22;46541;49.894;10.886;2022-10-18T08:15:59;16.20;99.90
60701;DHT22;46541;49.894;10.886;2022-10-18T08:18:26;16.20;99.90
60701;DHT22;46541;49.894;10.886;2022-10-18T08:20:53;16.20;99.90
60701;DHT22;46541;49.894;10.886;2022-10-18T08:23:22;16.10;99.90
60701;DHT22;46541;49.894;10.886;2022-10-18T08:25:49;16.10;99.90
60701;DHT22;46541;49.894;10.886;2022-10-18T08:28:16;16.20;99.90
60701;DHT22;46541;49.894;10.886;2022-10-18T08:30:43;16.20;99.90
60701;DHT22;46541;49.894;10.886;2022-10-18T08:33:09;16.30;99.90
60701;DHT22;46541;49.894;10.886;2022-10-18T08:35:36;16.30;99.90
60701;DHT22;46541;49.894;10.886;2022-10-18T08:38:03;16.30;99.90
60701;DHT22;46541;49.894;10.886;2022-10-18T08:40:31;16.40;99.90
60701;DHT22;46541;49.894;10.886;2022-10-18T08:45:48;16.50;99.90
60701;DHT22;46541;49.894;10.886;2022-10-18T08:48:25;16.70;99.90
60701;DHT22;46541;49.894;10.886;2022-10-18T08:50:55;16.80;99.90
60701;DHT22;46541;49.894;10.886;2022-10-18T08:53:27;17.00;99.90
60701;DHT22;46541;49.894;10.886;2022-10-18T08:56:09;17.20;99.90
60701;DHT22;46541;49.894;10.886;2022-10-18T08:58:49;17.30;99.90
60701;DHT22;46541;49.894;10.886;2022-10-18T09:04:25;17.50;99.90
60701;DHT22;46541;49.894;10.886;2022-10-18T09:14:56;17.50;99.90
60701;DHT22;46541;49.894;10.886;2022-10-18T09:17:45;17.70;99.90
60701;DHT22;46541;49.894;10.886;2022-10-18T09:26:02;17.80;99.90
60701;DHT22;46541;49.894;10.886;2022-10-18T09:33:58;18.10;99.90
60701;DHT22;46541;49.894;10.886;2022-10-18T09:36:31;18.20;99.90
60701;DHT22;46541;49.894;10.886;2022-10-18T09:41:47;18.20;99.90
60701;DHT22;46541;49.894;10.886;2022-10-18T09:44:23;18.20;99.90
60701;DHT22;46541;49.894;10.886;2022-10-18T09:47:04;18.20;99.90
60701;DHT22;46541;49.894;10.886;2022-10-18T09:49:44;18.20;99.90
60701;DHT22;46541;49.894;10.886;2022-10-18T09:52:20;18.20;99.90
60701;DHT22;46541;49.894;10.886;2022-10-18T09:54:54;18.30;99.90
60701;DHT22;46541;49.894;10.886;2022-10-18T09:57:36;18.30;99.90
60701;DHT22;46541;49.894;10.886;2022-10-18T10:00:14;18.20;99.90
60701;DHT22;46541;49.894;10.886;2022-10-18T10:02:41;18.20;99.90
60701;DHT22;46541;49.894;10.886;2022-10-18T10:05:18;18.10;99.90
60701;DHT22;46541;49.894;10.886;2022-10-18T10:07:47;18.10;99.90
60701;DHT22;46541;49.894;10.886;2022-10-18T10:10:23;18.20;99.90
60701;DHT22;46541;49.894;10.886;2022-10-18T10:15:47;18.20;99.90
60701;DHT22;46541;49.894;10.886;2022-10-18T10:18:56;18.10;99.90
60701;DHT22;46541;49.894;10.886;2022-10-18T10:21:15;18.00;99.90
60701;DHT22;46541;49.894;10.886;2022-10-18T10:23:48;18.00;99.90
60701;DHT22;46541;49.894;10.886;2022-10-18T10:26:23;17.90;99.90
60701;DHT22;46541;49.894;10.886;2022-10-18T10:28:51;17.90;99.90
60701;DHT22;46541;49.894;10.886;2022-10-18T10:36:51;18.00;99.90
60701;DHT22;46541;49.894;10.886;2022-10-18T10:39:20;18.10;99.90
60701;DHT22;46541;49.894;10.886;2022-10-18T10:41:51;18.10;99.90
60701;DHT22;46541;49.894;10.886;2022-10-18T10:44:21;18.20;99.90
60701;DHT22;46541;49.894;10.886;2022-10-18T10:46:50;18.20;99.90
60701;DHT22;46541;49.894;10.886;2022-10-18T10:49:23;18.40;99.90
60701;DHT22;46541;49.894;10.886;2022-10-18T10:52:06;18.60;99.90
60701;DHT22;46541;49.894;10.886;2022-10-18T10:54:54;18.70;99.90
60701;DHT22;46541;49.894;10.886;2022-10-18T10:57:37;18.80;99.90
60701;DHT22;46541;49.894;10.886;2022-10-18T11:00:04;18.80;99.90
60701;DHT22;46541;49.894;10.886;2022-10-18T11:02:32;18.80;99.90
60701;DHT22;46541;49.894;10.886;2022-10-18T11:05:22;18.90;99.90
60701;DHT22;46541;49.894;10.886;2022-10-18T11:07:53;19.20;99.90
60701;DHT22;46541;49.894;10.886;2022-10-18T11:10:23;19.40;99.90
60701;DHT22;46541;49.894;10.886;2022-10-18T11:15:37;19.50;99.90
60701;DHT22;46541;49.894;10.886;2022-10-18T11:23:34;19.50;99.90
60701;DHT22;46541;49.894;10.886;2022-10-18T11:31:44;19.20;99.90
60701;DHT22;46541;49.894;10.886;2022-10-18T11:34:39;19.10;99.90
60701;DHT22;46541;49.894;10.886;2022-10-18T12:03:26;19.30;99.90
60701;DHT22;46541;49.894;10.886;2022-10-18T12:05:56;19.30;99.90
60701;DHT22;46541;49.894;10.886;2022-10-18T12:08:46;19.30;99.90
60701;DHT22;46541;49.894;10.886;2022-10-18T12:11:24;19.20;99.90
60701;DHT22;46541;49.894;10.886;2022-10-18T12:13:59;19.10;99.90
60701;DHT22;46541;49.894;10.886;2022-10-18T12:16:31;19.10;99.90
60701;DHT22;46541;49.894;10.886;2022-10-18T12:19:25;19.10;99.90
60701;DHT22;46541;49.894;10.886;2022-10-18T12:21:56;19.20;99.90
60701;DHT22;46541;49.894;10.886;2022-10-18T12:24:27;19.20;99.90
60701;DHT22;46541;49.894;10.886;2022-10-18T12:26:58;19.20;99.90
60701;DHT22;46541;49.894;10.886;2022-10-18T12:32:07;19.20;99.90
60701;DHT22;46541;49.894;10.886;2022-10-18T12:34:44;19.20;99.90
60701;DHT22;46541;49.894;10.886;2022-10-18T12:42:45;19.20;99.90
60701;DHT22;46541;49.894;10.886;2022-10-18T12:47:39;19.20;99.90
60701;DHT22;46541;49.894;10.886;2022-10-18T12:50:25;19.20;99.90
60701;DHT22;46541;49.894;10.886;2022-10-18T12:53:16;19.30;99.90
60701;DHT22;46541;49.894;10.886;2022-10-18T12:55:46;19.40;99.90
60701;DHT22;46541;49.894;10.886;2022-10-18T13:35:56;19.20;99.90
60701;DHT22;46541;49.894;10.886;2022-10-18T13:38:41;19.10;99.90
60701;DHT22;46541;49.894;10.886;2022-10-18T13:41:18;19.00;99.90
60701;DHT22;46541;49.894;10.886;2022-10-18T13:49:27;18.80;99.90
60701;DHT22;46541;49.894;10.886;2022-10-18T14:06:16;18.80;99.90
60701;DHT22;46541;49.894;10.886;2022-10-18T14:09:05;18.90;99.90
60701;DHT22;46541;49.894;10.886;2022-10-18T14:14:55;18.80;99.90
60701;DHT22;46541;49.894;10.886;2022-10-18T14:22:52;18.80;99.90
60701;DHT22;46541;49.894;10.886;2022-10-18T14:25:25;18.80;99.90
60701;DHT22;46541;49.894;10.886;2022-10-18T14:28:18;18.80;99.90
60701;DHT22;46541;49.894;10.886;2022-10-18T14:33:37;18.60;99.90
60701;DHT22;46541;49.894;10.886;2022-10-18T14:41:51;18.60;99.90
60701;DHT22;46541;49.894;10.886;2022-10-18T14:44:26;18.60;99.90
60701;DHT22;46541;49.894;10.886;2022-10-18T14:47:02;18.60;99.90
60701;DHT22;46541;49.894;10.886;2022-10-18T14:49:29;18.60;99.90
60701;DHT22;46541;49.894;10.886;2022-10-18T14:51:59;18.50;99.90
60701;DHT22;46541;49.894;10.886;2022-10-18T14:56:59;18.50;99.90
60701;DHT22;46541;49.894;10.886;2022-10-18T14:59:28;18.50;99.90
60701;DHT22;46541;49.894;10.886;2022-10-18T15:04:26;18.40;99.90
60701;DHT22;46541;49.894;10.886;2022-10-18T15:07:02;18.40;99.90
60701;DHT22;46541;49.894;10.886;2022-10-18T15:09:31;18.30;99.90
60701;DHT22;46541;49.894;10.886;2022-10-18T15:12:04;18.30;99.90
60701;DHT22;46541;49.894;10.886;2022-10-18T15:14:32;18.20;99.90
60701;DHT22;46541;49.894;10.886;2022-10-18T15:17:03;18.20;99.90
60701;DHT22;46541;49.894;10.886;2022-10-18T15:19:35;18.20;99.90
60701;DHT22;46541;49.894;10.886;2022-10-18T15:22:05;18.10;99.90
60701;DHT22;46541;49.894;10.886;2022-10-18T15:27:36;18.00;99.90
60701;DHT22;46541;49.894;10.886;2022-10-18T15:30:06;17.90;99.90
60701;DHT22;46541;49.894;10.886;2022-10-18T15:32:34;17.80;99.90
60701;DHT22;46541;49.894;10.886;2022-10-18T15:35:16;17.70;99.90
60701;DHT22;46541;49.894;10.886;2022-10-18T15:37:51;17.70;99.90
60701;DHT22;46541;49.894;10.886;2022-10-18T15:43:02;17.50;99.90
60701;DHT22;46541;49.894;10.886;2022-10-18T15:45:34;17.50;99.90
60701;DHT22;46541;49.894;10.886;2022-10-18T15:58:43;17.40;99.90
60701;DHT22;46541;49.894;10.886;2022-10-18T16:01:41;17.30;99.90
60701;DHT22;46541;49.894;10.886;2022-10-18T16:04:17;17.30;99.90
60701;DHT22;46541;49.894;10.886;2022-10-18T16:06:45;17.30;99.90
60701;DHT22;46541;49.894;10.886;2022-10-18T16:09:15;17.30;99.90
60701;DHT22;46541;49.894;10.886;2022-10-18T16:11:42;17.30;99.90
60701;DHT22;46541;49.894;10.886;2022-10-18T16:14:09;17.20;99.90
60701;DHT22;46541;49.894;10.886;2022-10-18T16:16:36;17.20;99.90
60701;DHT22;46541;49.894;10.886;2022-10-18T16:19:04;17.20;99.90
60701;DHT22;46541;49.894;10.886;2022-10-18T16:21:33;17.20;99.90
60701;DHT22;46541;49.894;10.886;2022-10-18T16:24:01;17.20;99.90
60701;DHT22;46541;49.894;10.886;2022-10-18T16:26:28;17.20;99.90
60701;DHT22;46541;49.894;10.886;2022-10-18T16:28:56;17.20;99.90
60701;DHT22;46541;49.894;10.886;2022-10-18T16:31:26;17.10;99.90
60701;DHT22;46541;49.894;10.886;2022-10-18T16:33:54;17.10;99.90
60701;DHT22;46541;49.894;10.886;2022-10-18T16:36:26;17.10;99.90
60701;DHT22;46541;49.894;10.886;2022-10-18T16:38:55;17.10;99.90
60701;DHT22;46541;49.894;10.886;2022-10-18T16:41:23;17.00;99.90
60701;DHT22;46541;49.894;10.886;2022-10-18T16:43:50;17.00;99.90
60701;DHT22;46541;49.894;10.886;2022-10-18T16:46:28;17.00;99.90
60701;DHT22;46541;49.894;10.886;2022-10-18T16:48:56;17.00;99.90
60701;DHT22;46541;49.894;10.886;2022-10-18T16:51:23;17.00;99.90
60701;DHT22;46541;49.894;10.886;2022-10-18T16:53:50;17.00;99.90
60701;DHT22;46541;49.894;10.886;2022-10-18T16:56:20;16.90;99.90
60701;DHT22;46541;49.894;10.886;2022-10-18T16:58:48;17.00;99.90
60701;DHT22;46541;49.894;10.886;2022-10-18T17:01:17;16.90;99.90
60701;DHT22;46541;49.894;10.886;2022-10-18T17:03:45;16.90;99.90
60701;DHT22;46541;49.894;10.886;2022-10-18T17:06:16;16.90;99.90
60701;DHT22;46541;49.894;10.886;2022-10-18T17:08:43;16.90;99.90
60701;DHT22;46541;49.894;10.886;2022-10-18T17:11:11;16.90;99.90
60701;DHT22;46541;49.894;10.886;2022-10-18T17:13:38;16.80;99.90
60701;DHT22;46541;49.894;10.886;2022-10-18T17:16:05;16.80;99.90
60701;DHT22;46541;49.894;10.886;2022-10-18T17:18:32;16.90;99.90
60701;DHT22;46541;49.894;10.886;2022-10-18T17:20:59;16.80;99.90
60701;DHT22;46541;49.894;10.886;2022-10-18T17:23:28;16.80;99.90
60701;DHT22;46541;49.894;10.886;2022-10-18T17:25:55;16.80;99.90
60701;DHT22;46541;49.894;10.886;2022-10-18T17:28:42;16.80;99.90
60701;DHT22;46541;49.894;10.886;2022-10-18T17:31:09;16.80;99.90
60701;DHT22;46541;49.894;10.886;2022-10-18T17:33:36;16.80;99.90
60701;DHT22;46541;49.894;10.886;2022-10-18T17:36:03;16.70;99.90
60701;DHT22;46541;49.894;10.886;2022-10-18T17:38:30;16.70;99.90
60701;DHT22;46541;49.894;10.886;2022-10-18T17:40:56;16.60;99.90
60701;DHT22;46541;49.894;10.886;2022-10-18T17:43:23;16.60;99.90
60701;DHT22;46541;49.894;10.886;2022-10-18T17:45:54;16.50;99.90
60701;DHT22;46541;49.894;10.886;2022-10-18T17:48:22;16.50;99.90
60701;DHT22;46541;49.894;10.886;2022-10-18T17:50:50;16.50;99.90
60701;DHT22;46541;49.894;10.886;2022-10-18T17:53:16;16.40;99.90
60701;DHT22;46541;49.894;10.886;2022-10-18T17:55:48;16.50;99.90
60701;DHT22;46541;49.894;10.886;2022-10-18T17:58:15;16.40;99.90
60701;DHT22;46541;49.894;10.886;2022-10-18T18:00:41;16.40;99.90
60701;DHT22;46541;49.894;10.886;2022-10-18T18:03:08;16.40;99.90
60701;DHT22;46541;49.894;10.886;2022-10-18T18:05:35;16.40;99.90
60701;DHT22;46541;49.894;10.886;2022-10-18T18:08:02;16.40;99.90
60701;DHT22;46541;49.894;10.886;2022-10-18T18:10:32;16.50;99.90
60701;DHT22;46541;49.894;10.886;2022-10-18T18:12:59;16.40;99.90
60701;DHT22;46541;49.894;10.886;2022-10-18T18:15:27;16.40;99.90
60701;DHT22;46541;49.894;10.886;2022-10-18T18:17:53;16.40;99.90
60701;DHT22;46541;49.894;10.886;2022-10-18T18:20:24;16.40;99.90
60701;DHT22;46541;49.894;10.886;2022-10-18T18:22:51;16.30;99.90
60701;DHT22;46541;49.894;10.886;2022-10-18T18:25:18;16.30;99.90
60701;DHT22;46541;49.894;10.886;2022-10-18T18:27:45;16.30;99.90
60701;DHT22;46541;49.894;10.886;2022-10-18T18:30:12;16.30;99.90
60701;DHT22;46541;49.894;10.886;2022-10-18T18:32:39;16.30;99.90
60701;DHT22;46541;49.894;10.886;2022-10-18T18:35:06;16.30;99.90
60701;DHT22;46541;49.894;10.886;2022-10-18T18:37:33;16.30;99.90
60701;DHT22;46541;49.894;10.886;2022-10-18T18:40:00;16.30;99.90
60701;DHT22;46541;49.894;10.886;2022-10-18T18:42:26;16.20;99.90
60701;DHT22;46541;49.894;10.886;2022-10-18T18:44:53;16.20;99.90
60701;DHT22;46541;49.894;10.886;2022-10-18T18:47:20;16.20;99.90
60701;DHT22;46541;49.894;10.886;2022-10-18T18:49:49;16.10;99.90
60701;DHT22;46541;49.894;10.886;2022-10-18T18:52:17;16.10;99.90
60701;DHT22;46541;49.894;10.886;2022-10-18T18:54:45;16.00;99.90
60701;DHT22;46541;49.894;10.886;2022-10-18T18:57:11;16.00;99.90
60701;DHT22;46541;49.894;10.886;2022-10-18T18:59:38;15.90;99.90
60701;DHT22;46541;49.894;10.886;2022-10-18T19:02:05;15.90;99.90
60701;DHT22;46541;49.894;10.886;2022-10-18T19:04:32;15.90;99.90
60701;DHT22;46541;49.894;10.886;2022-10-18T19:07:00;15.90;99.90